createdAt,value
2022-09-05T00:00:03.257Z,14.10
2022-09-05T00:02:32.616Z,14.09
2022-09-05T00:05:09.798Z,14.09
2022-09-05T00:07:58.898Z,14.07
2022-09-05T00:11:39.280Z,14.03
2022-09-05T00:13:38.592Z,13.98
2022-09-05T00:16:22.919Z,13.94
2022-09-05T00:24:17.162Z,13.91
2022-09-05T00:24:37.402Z,13.85
2022-09-05T00:25:30.448Z,13.82
2022-09-05T00:27:59.130Z,13.76
2022-09-05T00:31:51.477Z,13.69
2022-09-05T00:34:16.396Z,13.61
2022-09-05T00:36:49.489Z,13.58
2022-09-05T00:39:47.938Z,13.59
2022-09-05T00:42:29.229Z,13.61
2022-09-05T00:45:02.816Z,13.62
2022-09-05T00:47:41.731Z,13.65
2022-09-05T00:50:25.325Z,13.63
2022-09-05T00:53:06.298Z,13.54
2022-09-05T00:55:37.034Z,13.48
2022-09-05T00:58:40.743Z,13.37
2022-09-05T01:01:29.466Z,13.26
2022-09-05T01:04:23.649Z,13.26
2022-09-05T01:07:18.804Z,13.25
2022-09-05T01:10:03.916Z,13.24
2022-09-05T01:12:52.598Z,13.18
2022-09-05T01:15:37.344Z,13.16
2022-09-05T01:18:12.588Z,13.15
2022-09-05T01:21:02.565Z,13.14
2022-09-05T01:23:40.546Z,13.13
2022-09-05T01:26:10.349Z,13.13
2022-09-05T01:29:15.738Z,13.13
2022-09-05T01:32:03.696Z,13.10
2022-09-05T01:34:51.095Z,13.09
2022-09-05T01:37:32.694Z,13.06
2022-09-05T01:40:24.168Z,13.01
2022-09-05T01:43:02.683Z,12.98
2022-09-05T01:45:41.033Z,12.96
2022-09-05T01:48:14.916Z,12.94
2022-09-05T01:51:05.352Z,12.94
2022-09-05T01:54:05.480Z,12.97
2022-09-05T01:56:48.008Z,12.99
2022-09-05T01:59:21.821Z,13.01
2022-09-05T02:02:33.215Z,13.03
2022-09-05T02:05:21.667Z,13.00
2022-09-05T02:08:26.472Z,13.02
2022-09-05T02:11:04.819Z,13.02
2022-09-05T08:20:30.377Z,21.12
2022-09-05T08:23:32.727Z,21.18
2022-09-05T08:26:14.323Z,21.25
2022-09-05T08:28:58.865Z,21.34
2022-09-05T08:31:38.553Z,21.43
2022-09-05T08:34:24.828Z,21.45
2022-09-05T08:37:00.624Z,21.54
2022-09-05T08:39:31.946Z,21.58
2022-09-05T08:42:07.559Z,21.67
2022-09-05T08:46:41.004Z,21.74
2022-09-05T08:47:45.504Z,21.88
2022-09-05T08:50:26.881Z,21.97
2022-09-05T08:53:18.700Z,22.05
2022-09-05T08:56:04.127Z,22.15
2022-09-05T08:59:27.823Z,22.28
2022-09-05T09:02:47.908Z,22.51
2022-09-05T09:06:12.888Z,22.71
2022-09-05T09:08:54.125Z,22.92
2022-09-05T09:11:34.231Z,22.98
2022-09-05T09:14:30.593Z,23.14
2022-09-05T09:17:23.385Z,23.23
2022-09-05T09:19:53.033Z,23.39
2022-09-05T09:22:56.897Z,23.49
2022-09-05T09:25:31.934Z,23.53
2022-09-05T09:28:50.162Z,23.63
2022-09-05T09:31:30.372Z,23.77
2022-09-05T09:34:25.314Z,23.90
2022-09-05T09:36:59.262Z,23.94
2022-09-05T09:39:49.735Z,24.06
2022-09-05T09:42:46.609Z,24.17
2022-09-05T09:45:31.984Z,24.33
2022-09-05T09:48:01.321Z,24.42
2022-09-05T09:50:30.845Z,24.49
2022-09-05T09:53:17.322Z,24.48
2022-09-05T09:56:10.163Z,24.58
2022-09-05T09:59:34.922Z,24.74
2022-09-05T10:04:33.517Z,24.79
2022-09-05T10:10:44.578Z,25.07
2022-09-05T10:10:51.625Z,24.84
2022-09-05T10:12:31.380Z,25.09
2022-09-05T10:15:30.760Z,25.25
2022-09-05T10:18:16.332Z,25.34
2022-09-05T10:21:15.604Z,25.45
2022-09-05T10:24:11.829Z,25.54
2022-09-05T10:26:53.755Z,25.50
2022-09-05T10:29:39.252Z,25.41
2022-09-05T10:34:18.132Z,25.54
2022-09-05T10:35:13.321Z,25.57
2022-09-05T10:37:52.171Z,25.67
2022-09-05T10:40:23.468Z,25.77
2022-09-05T10:43:08.328Z,25.88
2022-09-05T10:46:01.392Z,26.03
2022-09-05T10:48:36.844Z,26.02
2022-09-05T10:51:27.809Z,25.89
2022-09-05T10:53:58.702Z,25.83
2022-09-05T10:56:30.711Z,25.91
2022-09-05T11:01:48.585Z,26.03
2022-09-05T11:02:25.903Z,26.22
2022-09-05T11:05:17.449Z,26.29
2022-09-05T11:08:02.887Z,26.38
2022-09-05T11:10:44.189Z,26.27
2022-09-05T11:13:29.420Z,26.36
2022-09-05T11:16:13.436Z,26.37
2022-09-05T11:19:00.562Z,26.55
2022-09-05T11:21:45.016Z,26.62
2022-09-05T11:24:33.384Z,26.68
2022-09-05T11:27:25.242Z,26.73
2022-09-05T11:29:55.991Z,26.86
2022-09-05T11:36:59.278Z,26.90
2022-09-05T11:39:54.634Z,26.93
2022-09-05T11:40:07.646Z,26.67
2022-09-05T11:41:19.561Z,26.64
2022-09-05T11:44:02.465Z,26.60
2022-09-05T11:46:46.203Z,26.16
2022-09-05T11:49:37.153Z,26.01
2022-09-05T11:52:09.408Z,25.71
2022-09-05T11:54:55.721Z,25.57
2022-09-05T11:57:46.057Z,25.28
2022-09-05T12:00:34.523Z,25.02
2022-09-05T12:03:56.994Z,24.85
2022-09-05T12:06:25.317Z,24.77
2022-09-05T12:09:18.460Z,24.62
2022-09-05T12:12:18.628Z,24.49
2022-09-05T12:15:11.489Z,24.33
2022-09-05T12:17:56.656Z,24.25
2022-09-05T12:20:52.700Z,24.28
2022-09-05T12:23:53.696Z,24.12
2022-09-05T12:27:45.001Z,24.01
2022-09-05T12:29:33.431Z,24.05
2022-09-05T12:33:58.040Z,24.02
2022-09-05T12:36:12.539Z,23.99
2022-09-05T12:40:54.238Z,23.95
2022-09-05T12:41:46.270Z,23.99
2022-09-05T12:44:40.157Z,23.98
2022-09-05T12:47:16.740Z,23.99
2022-09-05T12:50:02.459Z,24.05
2022-09-05T12:52:33.914Z,24.21
2022-09-05T12:55:26.291Z,24.35
2022-09-05T13:02:59.294Z,24.56
2022-09-05T13:03:13.073Z,24.62
2022-09-05T13:06:50.730Z,24.71
2022-09-05T13:09:30.880Z,24.63
2022-09-05T13:14:54.759Z,24.53
2022-09-05T13:15:36.389Z,24.49
2022-09-05T13:18:23.570Z,24.40
2022-09-05T13:20:56.283Z,24.32
2022-09-05T13:23:31.302Z,24.24
2022-09-05T13:26:19.498Z,24.23
2022-09-05T13:28:52.039Z,24.13
2022-09-05T13:37:55.001Z,24.16
2022-09-05T13:38:01.013Z,23.98
2022-09-05T13:38:03.937Z,23.98
2022-09-05T13:40:23.010Z,23.98
2022-09-05T13:43:10.683Z,23.85
2022-09-05T13:46:06.401Z,23.82
2022-09-05T13:51:38.227Z,23.85
2022-09-05T13:54:20.123Z,23.75
2022-09-05T13:57:00.150Z,23.68
2022-09-05T13:59:28.356Z,23.66
2022-09-05T14:02:28.719Z,23.62
2022-09-05T14:05:20.791Z,23.61
2022-09-05T14:08:25.453Z,23.65
2022-09-05T14:11:10.987Z,23.66
2022-09-05T14:14:11.311Z,23.59
2022-09-05T14:16:54.389Z,23.48
2022-09-05T14:19:43.418Z,23.46
2022-09-05T14:22:20.156Z,23.42
2022-09-05T14:24:58.552Z,23.45
2022-09-05T14:33:57.631Z,23.48
2022-09-05T14:38:00.714Z,23.37
2022-09-05T14:38:01.655Z,23.42
2022-09-05T14:41:08.020Z,23.44
2022-09-05T14:44:03.234Z,23.42
2022-09-05T14:46:49.794Z,23.50
2022-09-05T14:49:35.029Z,23.49
2022-09-05T14:52:19.194Z,23.65
2022-09-05T15:02:42.722Z,23.90
2022-09-05T15:02:54.499Z,23.88
2022-09-05T15:06:33.270Z,23.89
2022-09-05T15:11:23.877Z,23.88
2022-09-05T15:12:26.244Z,23.93
2022-09-05T15:14:37.307Z,24.13
2022-09-05T15:17:05.713Z,24.27
2022-09-05T15:20:06.647Z,24.33
2022-09-05T15:22:41.697Z,24.32
2022-09-05T15:25:17.267Z,24.32
2022-09-05T15:27:47.670Z,24.22
2022-09-05T15:30:31.896Z,24.25
2022-09-05T15:33:25.710Z,24.31
2022-09-05T15:35:56.477Z,24.34
2022-09-05T15:38:56.157Z,24.38
2022-09-05T15:41:29.700Z,24.08
2022-09-05T15:44:09.472Z,23.83
2022-09-05T15:47:03.830Z,23.62
2022-09-05T15:49:49.070Z,23.59
2022-09-05T15:52:18.866Z,23.57
2022-09-05T15:54:51.618Z,23.58
2022-09-05T15:57:27.075Z,23.49
2022-09-05T16:00:00.246Z,23.53
2022-09-05T16:02:30.277Z,23.34
2022-09-05T16:10:27.241Z,23.32
2022-09-05T16:10:35.756Z,23.28
2022-09-05T16:11:12.110Z,23.32
2022-09-05T16:13:53.103Z,23.26
2022-09-05T16:20:29.197Z,23.21
2022-09-05T16:23:20.767Z,23.25
2022-09-05T16:23:24.301Z,23.23
2022-09-05T16:25:03.034Z,23.13
2022-09-05T16:27:45.953Z,22.97
2022-09-05T16:30:21.056Z,22.83
2022-09-05T16:32:51.214Z,22.71
2022-09-05T16:35:26.572Z,22.60
2022-09-05T16:38:24.092Z,22.54
2022-09-05T16:41:19.945Z,22.45
2022-09-05T16:43:54.420Z,22.34
2022-09-05T16:46:50.039Z,22.39
2022-09-05T16:49:36.859Z,22.34
2022-09-05T16:52:17.854Z,22.23
2022-09-05T16:55:07.953Z,22.18
2022-09-05T16:57:38.293Z,22.16
2022-09-05T17:00:07.886Z,22.07
2022-09-05T17:03:28.866Z,22.05
2022-09-05T17:06:07.519Z,22.04
2022-09-05T17:08:35.683Z,21.96
2022-09-05T17:11:12.181Z,21.95
2022-09-05T17:14:07.238Z,21.88
2022-09-05T17:16:50.173Z,21.75
2022-09-05T17:19:24.560Z,21.70
2022-09-05T17:26:48.451Z,21.57
2022-09-05T17:29:23.382Z,21.48
2022-09-05T17:29:30.537Z,21.31
2022-09-05T17:31:46.178Z,21.18
2022-09-05T17:33:46.285Z,21.07
2022-09-05T17:36:33.480Z,20.95
2022-09-05T17:39:44.333Z,20.83
2022-09-05T17:42:32.524Z,20.70
2022-09-05T17:45:23.322Z,20.59
2022-09-05T17:47:53.675Z,20.50
2022-09-05T17:50:44.326Z,20.39
2022-09-05T17:53:26.368Z,20.30
2022-09-05T17:55:54.662Z,20.23
2022-09-05T17:58:48.961Z,20.16
2022-09-05T18:01:26.619Z,20.07
2022-09-05T18:03:55.500Z,20.00
2022-09-05T18:06:51.045Z,19.90
2022-09-05T18:09:48.153Z,19.79
2022-09-05T18:15:27.354Z,19.66
2022-09-05T18:17:53.869Z,19.62
2022-09-05T18:20:33.441Z,19.58
2022-09-05T18:26:14.234Z,19.46
2022-09-05T18:28:56.191Z,19.39
2022-09-05T18:31:41.816Z,19.34
2022-09-05T18:34:14.883Z,19.26
2022-09-05T18:36:43.808Z,19.20
2022-09-05T18:39:25.648Z,19.12
2022-09-05T18:42:25.636Z,19.07
2022-09-05T18:44:50.375Z,18.97
2022-09-05T18:47:33.375Z,18.87
2022-09-05T18:50:25.789Z,18.67
2022-09-05T18:53:10.698Z,18.53
2022-09-05T18:56:39.449Z,18.44
2022-09-05T18:59:23.932Z,18.39
2022-09-05T19:02:05.557Z,18.36
2022-09-05T19:04:52.083Z,18.34
2022-09-05T19:07:47.896Z,18.34
2022-09-05T19:10:36.254Z,18.32
2022-09-05T19:13:15.031Z,18.31
2022-09-05T19:15:54.244Z,18.26
2022-09-05T19:19:07.487Z,18.03
2022-09-05T19:21:39.003Z,17.91
2022-09-05T19:24:11.442Z,17.82
2022-09-05T19:26:37.997Z,17.74
2022-09-05T19:34:33.475Z,17.72
2022-09-05T19:37:12.706Z,17.67
2022-09-05T19:37:13.892Z,17.62
2022-09-05T19:37:48.187Z,17.58
2022-09-05T19:46:50.711Z,17.56
2022-09-05T19:47:34.265Z,17.52
2022-09-05T19:47:37.701Z,17.52
2022-09-05T19:49:11.379Z,17.52
2022-09-05T19:51:41.130Z,17.52
2022-09-05T19:54:22.121Z,17.46
2022-09-05T19:56:48.807Z,17.40
2022-09-05T19:59:22.362Z,17.30
2022-09-05T20:01:51.923Z,17.22
2022-09-05T20:04:19.926Z,17.11
2022-09-05T20:06:48.677Z,17.03
2022-09-05T20:09:18.055Z,16.97
2022-09-05T20:11:50.923Z,16.91
2022-09-05T20:14:23.497Z,16.88
2022-09-05T20:16:53.187Z,16.85
2022-09-05T20:19:30.382Z,16.82
2022-09-05T20:22:10.209Z,16.77
2022-09-05T20:24:49.572Z,16.72
2022-09-05T20:27:17.246Z,16.70
2022-09-05T20:30:04.750Z,16.69
2022-09-05T20:32:40.471Z,16.67
2022-09-05T20:37:05.964Z,16.62
2022-09-05T20:43:16.979Z,16.59
2022-09-05T20:43:24.417Z,16.56
2022-09-05T20:44:22.524Z,16.52
2022-09-05T20:54:06.844Z,16.50
2022-09-05T20:54:17.850Z,16.44
2022-09-05T20:54:19.241Z,16.49
2022-09-05T20:55:39.176Z,16.36
2022-09-05T20:58:31.278Z,16.30
2022-09-05T21:01:20.925Z,16.26
2022-09-05T21:04:00.313Z,16.23
2022-09-05T21:06:33.268Z,16.22
2022-09-05T21:09:25.762Z,16.16
2022-09-05T21:11:58.787Z,16.11
2022-09-05T21:14:28.227Z,16.05
2022-09-05T21:17:12.021Z,16.00
2022-09-05T21:19:53.590Z,15.95
2022-09-05T21:22:21.524Z,15.93
2022-09-05T21:25:14.850Z,15.91
2022-09-05T21:28:03.273Z,15.88
2022-09-05T21:30:44.326Z,15.87
2022-09-05T21:33:31.325Z,15.86
2022-09-05T21:36:04.406Z,15.85
2022-09-05T21:38:33.479Z,15.83
2022-09-05T21:41:01.714Z,15.83
2022-09-05T21:47:32.876Z,15.81
2022-09-05T21:47:40.638Z,15.77
2022-09-05T21:49:03.413Z,15.76
2022-09-05T21:51:30.671Z,15.73
2022-09-05T21:59:08.216Z,15.71
2022-09-05T21:59:25.435Z,15.71
2022-09-05T21:59:55.519Z,15.69
2022-09-05T22:02:26.179Z,15.67
2022-09-05T22:05:03.022Z,15.63
2022-09-05T22:07:34.487Z,15.61
2022-09-05T22:10:06.456Z,15.59
2022-09-05T22:12:38.863Z,15.59
2022-09-05T22:15:28.446Z,15.57
2022-09-05T22:18:06.323Z,15.52
2022-09-05T22:20:42.915Z,15.47
2022-09-05T22:23:11.615Z,15.45
2022-09-05T22:25:38.961Z,15.41
2022-09-05T22:28:13.993Z,15.41
2022-09-05T22:30:40.520Z,15.39
2022-09-05T22:33:07.969Z,15.37
2022-09-05T22:35:36.215Z,15.35
2022-09-05T22:38:12.501Z,15.32
2022-09-05T22:40:40.972Z,15.29
2022-09-05T22:43:09.663Z,15.27
2022-09-05T22:45:38.156Z,15.25
2022-09-05T22:48:11.880Z,15.22
2022-09-05T22:50:39.320Z,15.19
2022-09-05T22:53:07.418Z,15.16
2022-09-05T22:55:34.916Z,15.13
2022-09-05T22:58:02.386Z,15.09
2022-09-05T23:00:29.284Z,15.08
2022-09-05T23:02:59.258Z,15.07
2022-09-05T23:05:26.871Z,15.06
2022-09-05T23:07:57.616Z,15.07
2022-09-05T23:10:24.710Z,15.07
2022-09-05T23:12:53.018Z,15.07
2022-09-05T23:15:22.900Z,15.08
2022-09-05T23:17:58.520Z,15.11
2022-09-05T23:20:30.283Z,15.11
2022-09-05T23:22:57.292Z,15.08
2022-09-05T23:25:24.381Z,14.99
2022-09-05T23:27:51.377Z,14.88
2022-09-05T23:30:17.910Z,14.73
2022-09-05T23:32:49.581Z,14.64
2022-09-05T23:35:17.226Z,14.52
2022-09-05T23:37:44.659Z,14.47
2022-09-05T23:40:16.763Z,14.45
2022-09-05T23:42:57.427Z,14.49
2022-09-05T23:45:24.993Z,14.56
2022-09-05T23:47:56.980Z,14.60
2022-09-05T23:50:23.939Z,14.61
2022-09-05T23:52:50.304Z,14.62
2022-09-05T23:55:19.834Z,14.63
2022-09-05T23:57:47.239Z,14.62
